Texas Shootout - LOFT SETTLING AND FLYING

Station: LOFT CHECK - T Race

Distance: 1 Miles    

Release: 21-Jul-2021 07:30

Weather Release:    Arrival:

Wind at Release:     Wind at Arrival:

Temp at Release: °    Temp at Arrival: °

Lofts: 63

Birds: 343

Clocked: 336

inventory all birds in the loft
Drops Pos Breeder Pigeon Name Color Sex Ent Arrival Speed To Win Elg Pd
1 Malone's Loft - TX 0328-AU21-DENT Typhoon BB C 1 08:53:26.40 21.093 00:00:00 Yes
2 Hillbilly Loft - TX 2260-AU21-AA 2560 x 63503 BB C 1 08:53:39.00 21.040 00:00:13 Yes
3 Johnson / Perron - LA 0657-AU21-LAF PNCL H 1 08:53:51.90 20.986 00:00:26 Yes
4 H & H Loft - TX 4358-AU21-VITA BB C 1 08:53:54.80 20.974 00:00:28 Yes
5 Baudy Loft - LA 21182-AU21-MET BB C 1 08:54:09.60 20.913 00:00:43 Yes
6 Tex-Mex Loft - TX 1183-AU21-NSL Brujo or Bruja GRIZ C 1 08:54:10.10 20.910 00:00:44 Yes
7 Rick Smith - TX 2177-AU21-SMIT BCSP H 1 08:54:14.30 20.893 00:00:48 Yes
8 Butch Shoop - TX 0099-AU21-GTF DC H 1 08:54:22.30 20.860 00:00:56 Yes
9 Dea Loft - AZ 0043-AU21-DEA BBWF H 1 08:54:24.80 20.850 00:00:58 Yes
10 Wartick Family Loft - KS 0216-AU21-AIR BSPL H 1 08:54:54.60 20.728 00:01:28 Yes
11 Venn Family Loft - WY 11504-AU21-ARPU BBWF C 1 08:56:11.70 20.419 00:02:45 Yes
12 Nemelka Racing Pigeon Loft - UT 1125-AU21-NRPL Argenton x Debacker Hen BB C 1 08:56:33.60 20.333 00:03:07 Yes
13 Any Given Day Loft - TX 21159-AU21-ANYG DCPD H 1 08:57:28.00 20.122 00:04:02 Yes
14 Venn Family Loft - WY 11505-AU21-ARPU BBWF H 2 08:57:28.70 20.119 00:04:02 Yes
15 The Red Dirt Gang - OK 10201-AU21-FOYS BB C 1 08:57:36.20 20.091 00:04:10 Yes
16 The New Orleans Boys - LA 21125-AU21-MET HERCULES SLWF C 1 08:57:40.60 20.074 00:04:14 Yes
17 Baudy Loft - LA 0136-AU21-DELT BCPD H 2 08:57:51.70 20.031 00:04:25 Yes
18 Elton Dinga - TX 19976-AU21-AA 17-42512 x 11-24202 BB H 1 08:58:11.40 19.957 00:04:45 Yes
19 B S B Loft - OK 10205-AU21-FOYS BC H 1 08:58:12.60 19.952 00:04:46 Yes
20 The New Orleans Boys - LA 21105-AU21-MET ROMEDA C H 2 08:58:31.10 19.883 00:05:05 Yes
22 Tx Lin Loft - TX 0096-AU21-TXLI BBWF H 1 09:02:48.70 18.963 00:09:22 Yes
23 Blue Dog Express - TX 0468-AU21-DENT BB C 1 09:03:04.40 18.910 00:09:38 Yes
24 Team Taylor's & Berry's - TX 3187-AU21-TEX BB H 1 09:04:16.80 18.668 00:10:50 Yes
25 Bill Kluge - TX 1002-AU21-COLD 6 BB C 1 09:04:30.40 18.623 00:11:04 Yes
26 Mc Laughlin Lofts - MA 0254-AU21-MCLO DCTC H 1 09:05:04.80 18.511 00:11:38 Yes
27 Patrick Kwan - CA 2156-AU21-KWAN BC C 1 09:06:42.50 18.199 00:13:16 Yes
28 Cuevas Classic - TX 0861-AU21-DALL BB H 1 09:07:04.80 18.129 00:13:39 Yes
29 Nemelka Racing Pigeon Loft - UT 1120-AU21-NRPL Son Bono x Dab of Ranch BB H 2 09:08:17.70 17.905 00:14:51 Yes
30 Nestle Loft - TX 30250-AU21-AA PNSP H 1 09:09:59.80 17.601 00:16:33 Yes
31 Corso & Jean - LA 81385-AU21-ARPU BSPL H 1 09:10:16.70 17.551 00:16:50 Yes
32 Vangruen Syndicate - CA 1167-AU21-VANG BBWF C 1 09:11:33.20 17.331 00:18:07 Yes
33 Dan & Greg Coury - AZ 1175-AU21-PEGA BB C 1 09:13:02.80 17.080 00:19:36 Yes
34 Dan & Greg Coury - AZ 1214-AU21-PEGA DCWF C 2 09:14:58.30 16.766 00:21:32 Yes
35 Sky Dancer Loft - TX 0775-AU21-WWC BC C 1 09:15:07.40 16.742 00:21:41 Yes
36 C.C.C. & Son - KS 2172-AU21-CCC BCWF C 1 09:15:37.00 16.664 00:22:11 Yes
37 Sovereign Loft - TX 0092-AU21-SOV BB C 1 09:16:15.20 16.564 00:22:49 Yes
38 Clear Springs Loft - FL 0130-AU21-WARD RC C 1 09:16:54.80 16.462 00:23:28 Yes
39 Patrick Kwan - CA 2177-AU21-KWAN DCPD H 2 09:18:39.30 16.198 00:25:13 Yes
40 Dea Loft - AZ 0033-AU21-DEA BC H 2 09:22:15.70 15.678 00:28:49 Yes
41 Brown & Evans - TX 0987-AU21-WF BBWF C 1 09:22:29.00 15.647 00:29:02 Yes
42 Wartick Family Loft - KS 9529-AU21-ARPU BC H 2 09:23:10.10 15.552 00:29:44 Yes
43 C F L - LA 1075-AU21-CFL DC C 1 09:23:26.10 15.515 00:30:00 Yes
44 Corso & Jean - LA 81386-AU21-ARPU BB C 2 09:23:38.50 15.487 00:30:12 Yes
45 Venn Family Loft - WY 11515-AU21-ARPU BB C 3 09:23:52.20 15.456 00:30:26 Yes
46 Any Given Day Loft - TX 21146-AU21-ANYG BC C 2 09:24:04.80 15.428 00:30:38 Yes
47 The Red Dirt Gang - OK 29645-AU21-FOYS BBWF C 2 09:27:05.40 15.031 00:33:39 Yes
48 Wartick Family Loft - KS 0217-AU21-AIR BSPL H 3 09:28:00.10 14.915 00:34:34 Yes
49 Nemelka Racing Pigeon Loft - UT 1124-AU21-NRPL Goessen 119 x Double BC H 3 09:29:17.70 14.753 00:35:51 Yes
50 SouthernLegacyLoft - TX 2124-AU21-SLL BB C 1 09:31:08.30 14.529 00:37:42 Yes
51 Westfall/Lindsay - MO 0111-AU21-WMW BB H 1 09:31:40.50 14.465 00:38:14 Yes
52 Nemelka Racing Pigeon Loft - UT 1121-AU21-NRPL Psycho Killer x Yula RC H 4 09:33:12.60 14.285 00:39:46 Yes
53 Sovereign Loft - TX 0089-AU21-SOV BB C 2 09:33:17.40 14.275 00:39:51 Yes
54 Timberline Speed Loft - TX 0141-AU21-HALE BB C 1 09:34:03.30 14.187 00:40:37 Yes
55 Bill Kluge - TX 1110-AU21-COLD BB C 2 09:34:05.90 14.182 00:40:40 Yes
56 Hollywood Honey - CA 0718-AU21-SD BB C 1 09:34:21.90 14.152 00:40:55 Yes
57 Nemelka Racing Pigeon Loft - UT 1122-AU21-NRPL Psycho Killer x Yula BC H 5 09:34:29.20 14.138 00:41:03 Yes
58 Nemelka Racing Pigeon Loft - UT 1116-AU21-NRPL Florian x 5029 BC H 6 09:35:08.30 14.064 00:41:42 Yes
59 English Syndicate - UK 19456-GB21-E BC C 1 09:35:20.50 14.042 00:41:54 Yes
60 Nemeth Family Loft - CA 0894-AU21-NEME BB H 1 09:35:38.50 14.008 00:42:12 Yes
61 Corso & Jean - LA 81336-AU21-ARPU BC C 3 09:35:39.20 14.007 00:42:13 Yes
62 Sky Dancer Loft - TX 0776-AU21-WWC BC C 2 09:35:50.00 13.987 00:42:23 Yes
63 Baudy Loft - LA 0135-AU21-DELT BCPD H 3 09:35:56.70 13.974 00:42:30 Yes
64 Dea Loft - AZ 0035-AU21-DEA BB C 3 09:36:08.30 13.953 00:42:42 Yes
65 R & D Racing 2 - ON 1844-AU21-AA BB H 1 09:36:09.70 13.950 00:42:43 Yes
66 Gold Star Loft - FL 1884-AU21-STON BB C 1 09:36:11.70 13.947 00:42:45 Yes
67 Hillbilly Loft - TX 2253-AU21-AA 13846 X 13728 Golden Pr BC H 2 09:36:13.40 13.944 00:42:47 Yes
68 Callahan Loft - MO 0310-AU21-AA BB C 1 09:36:21.40 13.929 00:42:55 Yes
69 Elton Dinga - TX 0374-AU21-DALL Wouters 715 x Jos 860 BB H 2 09:36:27.40 13.918 00:43:01 Yes
70 Gold Star Loft - FL 1899-AU21-STON BC H 2 09:36:45.30 13.885 00:43:19 Yes
71 H & H Loft - TX 4364-AU21-VITA BB C 3 09:37:14.40 13.832 00:43:48 Yes
72 Venn Family Loft - WY 11529-AU21-ARPU BBWF C 4 09:37:26.30 13.811 00:44:00 Yes
73 Dekeratry Loft - TX 0521-AU21-HOT SLWF C 1 09:38:13.60 13.726 00:44:47 Yes
74 R & D Racing 2 - ON 1884-AU21-AA BB C 2 09:39:23.90 13.601 00:45:58 Yes
75 Wood Loft - TX 0780-AU21-DENT BB C 1 09:39:40.40 13.573 00:46:14 Yes
76 Hillbilly Loft - TX 2285-AU21-AA 3117 X 17684 BB H 3 09:39:40.80 13.572 00:46:14 Yes
77 Nestle Loft - TX 30241-AU21-AA BCWF H 2 09:39:49.90 13.556 00:46:24 Yes
78 Dan & Greg Coury - AZ 0730-AU21-AONE BC C 3 09:39:52.20 13.552 00:46:26 Yes
79 Wood Loft - TX 0772-AU21-DENT BC C 2 09:39:52.60 13.551 00:46:26 Yes
80 H & H Loft - TX 4301-AU21-VITA BB C 4 09:40:03.30 13.533 00:46:37 Yes
81 Zong Jing Tang - FL 11873-AU21-GHC BB H 1 09:40:07.20 13.526 00:46:41 Yes
82 Rick Smith - TX 2163-AU21-SMIT BB C 2 09:40:08.90 13.523 00:46:43 Yes
83 Callahan Loft - MO 0332-AU21-AA RC C 2 09:40:11.80 13.518 00:46:45 Yes
84 The New Orleans Boys - LA 21179-AU21-MET DC H 3 09:40:40.40 13.469 00:47:14 Yes
85 Baudy Loft - LA 21197-AU21-MET BB C 4 09:41:25.00 13.393 00:47:58 Yes
86 H & H Loft - TX 4362-AU21-VITA BBPD H 5 09:41:27.50 13.388 00:48:01 Yes
87 Ledet-Gutrz - LA 21550-AU21-LEDE BBWF H 1 09:41:28.40 13.387 00:48:02 Yes
88 Timberline Speed Loft - TX 81220-AU21-ARPU BB H 2 09:41:30.70 13.383 00:48:04 Yes
89 C F L - LA 1069-AU21-CFL BC C 2 09:42:04.20 13.326 00:48:38 Yes
90 Butch Shoop - TX 0095-AU21-GTF BB C 2 09:43:41.40 13.165 00:50:15 Yes
91 Malone's Loft - TX 0330-AU21-DENT Thunderbolt BB H 2 09:43:44.50 13.160 00:50:18 Yes
92 Callahan Loft - MO 0350-AU21-AA BB C 3 09:44:10.10 13.118 00:50:44 Yes
93 Two-Be-Won - NV 21056-AU21-TBW 18061-18058 BB C 1 09:45:16.10 13.011 00:51:50 Yes
94 Gold Star Loft - FL 1881-AU21-STON BC H 3 09:46:17.50 12.913 00:52:51 Yes
95 Larry Payne - TX 0622-AU21-LPL BB C 1 09:46:22.80 12.905 00:52:56 Yes
96 Team Taylor's & Berry's - TX 8189-AU21-TEXA BB C 2 09:46:24.70 12.902 00:52:58 Yes
97 Clear Springs Loft - FL 0028-AU21-WARD BB H 2 09:46:25.70 12.901 00:52:59 Yes
98 Wartick Family Loft - KS 9527-AU21-ARPU BB H 4 09:46:26.10 12.900 00:53:00 Yes
99 Ledet-Gutrz - LA 21164-AU21-LEDE BC H 2 09:46:27.50 12.898 00:53:01 Yes
100 Johnson / Perron - LA 0661-AU21-LAF BC H 2 09:46:28.40 12.896 00:53:02 Yes
101 Jojos International - TX 6275-AU21-GJOJ BB C 1 09:46:31.90 12.891 00:53:05 Yes

There are 336 bird records

Note: These Race Results are unofficial and subject to change until verified by the Race Committee and declared final.